Time;durP1;ratioP1;P1;durP2;ratioP2;P2;SDS_P1;SDS_P2;PMS_P1;PMS_P2;Temp;Humidity;BMP_temperature;BMP_pressure;BME280_temperature;BME280_humidity;BME280_pressure;Samples;Min_cycle;Max_cycle;Signal;HPM_P1;HPM_P2
2022/09/16 00:01:27;;;;;;;;;;;;;;;17.93;100.00;97275.91;5081463;28;20011;-80
2022/09/16 00:03:54;;;;;;;;;;;;;;;18.02;100.00;97276.66;5065982;28;20435;-80
2022/09/16 00:06:22;;;;;;;;;;;;;;;18.10;100.00;97267.72;5057206;28;20310;-80
2022/09/16 00:08:50;;;;;;;;;;;;;;;18.17;100.00;97270.69;5063786;28;20310;-81
2022/09/16 00:11:17;;;;;;;;;;;;;;;18.20;100.00;97267.34;5071780;28;19924;-81
2022/09/16 00:13:43;;;;;;;;;;;;;;;17.90;100.00;97260.34;5086395;28;19928;-80
2022/09/16 00:16:11;;;;;;;;;;;;;;;18.03;100.00;97262.03;5090733;28;19935;-80
2022/09/16 00:18:37;;;;;;;;;;;;;;;18.08;100.00;97261.03;5078189;28;20508;-80
2022/09/16 00:21:07;;;;;;;;;;;;;;;18.12;100.00;97265.47;5073957;28;19938;-80
2022/09/16 00:23:33;;;;;;;;;;;;;;;18.16;100.00;97262.94;5082750;28;19957;-80
2022/09/16 00:26:01;;;;;;;;;;;;;;;18.20;100.00;97261.13;5085834;28;19935;-80
2022/09/16 00:28:27;;;;;;;;;;;;;;;18.22;100.00;97253.50;5071878;28;20003;-81
2022/09/16 00:30:53;;;;;;;;;;;;;;;18.20;100.00;97261.94;5055664;28;19929;-79
2022/09/16 00:33:20;;;;;;;;;;;;;;;18.21;100.00;97252.72;5081680;28;19939;-81
2022/09/16 00:35:46;;;;;;;;;;;;;;;18.18;100.00;97252.56;5078266;28;19924;-81
2022/09/16 00:38:13;;;;;;;;;;;;;;;18.21;100.00;97251.91;5085669;28;19924;-80
2022/09/16 00:40:44;;;;;;;;;;;;;;;18.21;100.00;97250.00;5084285;28;19924;-80
2022/09/16 00:43:12;;;;;;;;;;;;;;;18.20;100.00;97245.72;5082177;28;19933;-80
2022/09/16 00:45:38;;;;;;;;;;;;;;;18.01;100.00;97252.69;5069904;28;19934;-80
2022/09/16 00:48:08;;;;;;;;;;;;;;;17.90;100.00;97246.84;5078093;28;20402;-80
2022/09/16 00:50:37;;;;;;;;;;;;;;;17.86;100.00;97254.00;5078069;28;19967;-80
2022/09/16 00:53:04;;;;;;;;;;;;;;;17.81;100.00;97248.81;5070392;28;19958;-80
2022/09/16 00:55:32;;;;;;;;;;;;;;;17.88;100.00;97243.69;5077737;28;20489;-80
2022/09/16 00:58:01;;;;;;;;;;;;;;;17.85;100.00;97248.94;5071204;28;19924;-80
2022/09/16 01:00:29;;;;;;;;;;;;;;;17.93;100.00;97240.78;5074060;28;19931;-80
2022/09/16 01:02:55;;;;;;;;;;;;;;;17.94;100.00;97241.59;5067211;28;19930;-79
2022/09/16 01:05:24;;;;;;;;;;;;;;;17.99;100.00;97250.28;5084412;28;19932;-80
2022/09/16 01:07:52;;;;;;;;;;;;;;;17.99;100.00;97249.50;5081797;28;19967;-80
2022/09/16 01:10:20;;;;;;;;;;;;;;;17.98;100.00;97251.41;5089612;28;19931;-80
2022/09/16 01:12:49;;;;;;;;;;;;;;;18.06;100.00;97239.78;5066110;28;19931;-80
2022/09/16 01:15:16;;;;;;;;;;;;;;;17.87;100.00;97239.41;5082822;28;19950;-80
2022/09/16 01:17:59;;;;;;;;;;;;;;;17.87;100.00;97231.28;5081267;28;19925;-80
2022/09/16 01:20:54;;;;;;;;;;;;;;;17.95;100.00;97235.84;5078531;28;19931;-80
2022/09/16 01:23:36;;;;;;;;;;;;;;;17.99;100.00;97236.78;5073235;28;20346;-81
2022/09/16 01:26:08;;;;;;;;;;;;;;;18.03;100.00;97243.13;5082066;28;19977;-80
2022/09/16 01:28:53;;;;;;;;;;;;;;;18.08;100.00;97234.03;5082988;28;19963;-80
2022/09/16 01:31:23;;;;;;;;;;;;;;;18.12;100.00;97227.66;5058944;28;19931;-82
2022/09/16 01:33:54;;;;;;;;;;;;;;;18.07;100.00;97217.03;5048937;28;19932;-80
2022/09/16 01:36:28;;;;;;;;;;;;;;;18.05;100.00;97224.66;5078854;28;19950;-79
2022/09/16 01:38:59;;;;;;;;;;;;;;;18.11;100.00;97220.66;5076978;28;19928;-80
2022/09/16 01:41:28;;;;;;;;;;;;;;;18.10;100.00;97219.09;5083172;28;20429;-80
2022/09/16 01:43:58;;;;;;;;;;;;;;;18.09;100.00;97222.09;5079385;28;20302;-81
2022/09/16 01:46:30;;;;;;;;;;;;;;;18.06;100.00;97215.44;5083085;28;19928;-79
2022/09/16 01:49:00;;;;;;;;;;;;;;;18.07;100.00;97222.41;5067620;28;19982;-79
2022/09/16 01:51:30;;;;;;;;;;;;;;;18.07;100.00;97225.13;5087760;28;19939;-80
2022/09/16 01:54:03;;;;;;;;;;;;;;;17.98;100.00;97218.97;5094472;28;19927;-80
2022/09/16 01:56:32;;;;;;;;;;;;;;;17.98;100.00;97216.28;5097393;28;20448;-80
2022/09/16 01:59:00;;;;;;;;;;;;;;;17.99;100.00;97225.97;5069442;28;19934;-81
2022/09/16 02:01:31;;;;;;;;;;;;;;;17.87;100.00;97228.59;5073598;28;20010;-80
2022/09/16 02:04:00;;;;;;;;;;;;;;;17.93;100.00;97226.50;5076336;28;20013;-78
2022/09/16 02:06:28;;;;;;;;;;;;;;;17.95;100.00;97226.97;5077829;28;19928;-80
2022/09/16 02:08:56;;;;;;;;;;;;;;;18.00;100.00;97219.47;5073178;28;19928;-79
2022/09/16 02:11:22;;;;;;;;;;;;;;;18.01;100.00;97231.84;5087446;28;19967;-80
2022/09/16 02:13:52;;;;;;;;;;;;;;;17.96;100.00;97229.34;5077388;28;19924;-80
2022/09/16 02:16:21;;;;;;;;;;;;;;;17.91;100.00;97240.34;5076436;28;19954;-80
2022/09/16 02:18:51;;;;;;;;;;;;;;;17.95;100.00;97243.94;5073184;28;19929;-79
2022/09/16 02:21:18;;;;;;;;;;;;;;;17.93;100.00;97251.59;5073519;28;19923;-80
2022/09/16 02:23:46;;;;;;;;;;;;;;;17.96;100.00;97255.56;5057237;28;19934;-79
2022/09/16 02:26:16;;;;;;;;;;;;;;;17.81;100.00;97254.22;5076163;28;19925;-80
2022/09/16 02:28:44;;;;;;;;;;;;;;;17.81;100.00;97248.81;5050869;28;19983;-78
2022/09/16 02:31:13;;;;;;;;;;;;;;;17.88;100.00;97254.50;5076028;28;20382;-81
2022/09/16 02:33:43;;;;;;;;;;;;;;;17.89;100.00;97250.66;5064226;28;19928;-80
2022/09/16 02:36:14;;;;;;;;;;;;;;;17.86;100.00;97245.13;5064337;28;19960;-79
2022/09/16 02:38:41;;;;;;;;;;;;;;;17.89;100.00;97247.19;5072100;28;19939;-83
2022/09/16 02:41:13;;;;;;;;;;;;;;;17.88;100.00;97242.91;5076308;28;20435;-81
2022/09/16 02:43:40;;;;;;;;;;;;;;;17.83;100.00;97241.16;5071773;28;19955;-79
2022/09/16 02:46:09;;;;;;;;;;;;;;;17.87;100.00;97238.59;5065142;28;19929;-79
2022/09/16 02:48:40;;;;;;;;;;;;;;;17.84;100.00;97240.06;5070719;28;20402;-80
2022/09/16 02:51:15;;;;;;;;;;;;;;;17.80;100.00;97239.09;5076771;28;19928;-80
2022/09/16 02:53:46;;;;;;;;;;;;;;;17.76;100.00;97235.50;5059760;28;19928;-80
2022/09/16 02:56:15;;;;;;;;;;;;;;;17.73;100.00;97236.16;5040696;28;19928;-79
2022/09/16 02:58:41;;;;;;;;;;;;;;;17.74;100.00;97229.59;5059506;28;20323;-79
2022/09/16 03:01:08;;;;;;;;;;;;;;;17.76;100.00;97225.47;5070435;28;19938;-79
2022/09/16 03:03:34;;;;;;;;;;;;;;;17.80;100.00;97220.19;5078591;28;19924;-79
2022/09/16 03:06:10;;;;;;;;;;;;;;;17.83;100.00;97218.75;5084057;28;19951;-80
2022/09/16 03:08:36;;;;;;;;;;;;;;;17.82;100.00;97236.09;5056789;28;19992;-81
2022/09/16 03:11:08;;;;;;;;;;;;;;;17.80;100.00;97226.41;5063351;28;19931;-80
2022/09/16 03:13:39;;;;;;;;;;;;;;;17.76;100.00;97228.16;5065802;28;19935;-80
2022/09/16 03:16:09;;;;;;;;;;;;;;;17.72;100.00;97234.56;5089180;28;20618;-80
2022/09/16 03:18:42;;;;;;;;;;;;;;;17.67;100.00;97232.03;5069594;28;19928;-82
2022/09/16 03:21:14;;;;;;;;;;;;;;;17.75;100.00;97236.59;5088473;28;19928;-80
2022/09/16 03:23:44;;;;;;;;;;;;;;;17.74;100.00;97218.81;5066972;28;19930;-79
2022/09/16 03:26:22;;;;;;;;;;;;;;;17.77;100.00;97226.25;5077857;28;20053;-81
2022/09/16 03:28:54;;;;;;;;;;;;;;;17.87;100.00;97231.28;5070279;28;19935;-80
2022/09/16 03:31:25;;;;;;;;;;;;;;;17.75;100.00;97223.09;5068795;28;20657;-80
2022/09/16 03:33:57;;;;;;;;;;;;;;;17.77;100.00;97218.94;5074161;28;19924;-80
2022/09/16 03:36:27;;;;;;;;;;;;;;;17.73;100.00;97218.00;5074789;28;19940;-80
2022/09/16 03:38:54;;;;;;;;;;;;;;;17.76;100.00;97213.88;5078856;28;19928;-82
2022/09/16 03:41:23;;;;;;;;;;;;;;;17.76;100.00;97230.09;5060012;28;20413;-82
2022/09/16 03:43:53;;;;;;;;;;;;;;;17.72;100.00;97219.16;5063383;28;19928;-82
2022/09/16 03:46:19;;;;;;;;;;;;;;;17.64;100.00;97228.06;5061523;28;19940;-82
2022/09/16 03:48:45;;;;;;;;;;;;;;;17.61;100.00;97222.50;5059656;28;20357;-81
2022/09/16 03:51:12;;;;;;;;;;;;;;;17.64;100.00;97228.06;5076394;28;19928;-82
2022/09/16 03:53:38;;;;;;;;;;;;;;;17.66;100.00;97230.44;5061595;28;20406;-83
2022/09/16 03:56:05;;;;;;;;;;;;;;;17.67;100.00;97230.09;5080029;28;19934;-81
2022/09/16 03:58:32;;;;;;;;;;;;;;;17.58;100.00;97229.34;5090315;28;19923;-82
2022/09/16 04:00:59;;;;;;;;;;;;;;;17.56;100.00;97230.81;5086431;28;20390;-81
2022/09/16 04:03:25;;;;;;;;;;;;;;;17.61;100.00;97223.31;5084721;28;19924;-81
2022/09/16 04:05:52;;;;;;;;;;;;;;;17.52;100.00;97224.44;5072202;28;19947;-81
2022/09/16 04:08:19;;;;;;;;;;;;;;;17.51;100.00;97228.25;5070140;28;20518;-81
2022/09/16 04:10:53;;;;;;;;;;;;;;;17.58;100.00;97225.88;5065532;28;19924;-82
2022/09/16 04:13:19;;;;;;;;;;;;;;;17.56;100.00;97231.59;5096709;28;20661;-82
2022/09/16 04:15:47;;;;;;;;;;;;;;;17.56;100.00;97222.72;5087312;28;19931;-81
2022/09/16 04:18:13;;;;;;;;;;;;;;;17.62;100.00;97234.91;5081632;28;19932;-82
2022/09/16 04:20:39;;;;;;;;;;;;;;;17.62;100.00;97234.91;5069482;28;19930;-82
2022/09/16 04:23:06;;;;;;;;;;;;;;;17.66;100.00;97230.44;5066384;28;20631;-82
2022/09/16 04:25:32;;;;;;;;;;;;;;;17.66;100.00;97233.16;5060825;28;20493;-82
2022/09/16 04:27:58;;;;;;;;;;;;;;;17.63;100.00;97223.78;5086306;28;19928;-81
2022/09/16 04:30:25;;;;;;;;;;;;;;;17.57;100.00;97227.78;5084220;28;19924;-81
2022/09/16 04:32:54;;;;;;;;;;;;;;;17.60;100.00;97232.53;5069990;28;20029;-82
2022/09/16 04:35:20;;;;;;;;;;;;;;;17.63;100.00;97223.00;5080826;28;20019;-82
2022/09/16 04:37:47;;;;;;;;;;;;;;;17.65;100.00;97231.56;5086742;28;19930;-81
2022/09/16 04:40:13;;;;;;;;;;;;;;;17.64;100.00;97236.16;5071984;28;19924;-82
2022/09/16 04:42:39;;;;;;;;;;;;;;;17.57;100.00;97232.41;5068333;28;19925;-82
2022/09/16 04:45:06;;;;;;;;;;;;;;;17.58;100.00;97228.56;5068632;28;20426;-82
2022/09/16 04:47:33;;;;;;;;;;;;;;;17.61;100.00;97228.72;5085321;28;20341;-82
2022/09/16 04:50:00;;;;;;;;;;;;;;;17.54;100.00;97223.00;5079583;28;19930;-83
2022/09/16 04:52:29;;;;;;;;;;;;;;;17.54;100.00;97216.81;5087589;28;19954;-83
2022/09/16 04:54:56;;;;;;;;;;;;;;;17.59;100.00;97211.25;5074100;28;19952;-82
2022/09/16 04:57:22;;;;;;;;;;;;;;;17.55;100.00;97207.63;5072100;28;20023;-82
2022/09/16 04:59:49;;;;;;;;;;;;;;;17.54;100.00;97216.81;5056036;28;19935;-82
2022/09/16 05:02:15;;;;;;;;;;;;;;;17.52;100.00;97216.31;5076858;28;19924;-82
2022/09/16 05:04:41;;;;;;;;;;;;;;;17.50;100.00;97218.56;5095327;28;19954;-82
2022/09/16 05:07:09;;;;;;;;;;;;;;;17.51;100.00;97220.16;5074245;28;19939;-83
2022/09/16 05:09:36;;;;;;;;;;;;;;;17.43;100.00;97215.56;5069720;28;19934;-82
2022/09/16 05:12:02;;;;;;;;;;;;;;;17.47;100.00;97228.13;5078382;28;19924;-83
2022/09/16 05:14:29;;;;;;;;;;;;;;;17.45;100.00;97226.84;5077179;28;20363;-83
2022/09/16 05:16:56;;;;;;;;;;;;;;;17.47;100.00;97228.13;5083877;28;19924;-82
2022/09/16 05:19:22;;;;;;;;;;;;;;;17.45;100.00;97226.84;5079152;28;19931;-83
2022/09/16 05:21:48;;;;;;;;;;;;;;;17.44;100.00;97231.47;5079783;28;19935;-82
2022/09/16 05:24:16;;;;;;;;;;;;;;;17.31;100.00;97228.97;5072412;28;19924;-82
2022/09/16 05:26:43;;;;;;;;;;;;;;;17.45;100.00;97235.75;5068398;28;20355;-82
2022/09/16 05:29:11;;;;;;;;;;;;;;;17.40;100.00;97240.50;5066808;28;19929;-82
2022/09/16 05:31:38;;;;;;;;;;;;;;;17.49;100.00;97235.88;5075134;28;19932;-82
2022/09/16 05:34:06;;;;;;;;;;;;;;;17.51;100.00;97233.66;5068155;28;19935;-83
2022/09/16 05:36:33;;;;;;;;;;;;;;;17.47;100.00;97238.13;5064958;28;20393;-84
2022/09/16 05:39:00;;;;;;;;;;;;;;;17.50;100.00;97240.16;5079134;28;19935;-84
2022/09/16 05:41:28;;;;;;;;;;;;;;;17.52;100.00;97236.03;5079383;28;19934;-83
2022/09/16 05:43:56;;;;;;;;;;;;;;;17.51;100.00;97225.56;5060361;28;19978;-83
2022/09/16 05:46:23;;;;;;;;;;;;;;;17.37;100.00;97223.06;5060832;28;19931;-85
2022/09/16 05:48:50;;;;;;;;;;;;;;;17.43;100.00;97224.47;5074583;28;20363;-84
2022/09/16 05:51:17;;;;;;;;;;;;;;;17.33;100.00;97216.72;5040885;28;20004;-84
2022/09/16 05:53:44;;;;;;;;;;;;;;;17.36;100.00;97213.38;5069606;28;19924;-83
2022/09/16 05:56:11;;;;;;;;;;;;;;;17.36;100.00;97215.31;5054548;28;19960;-83
2022/09/16 05:58:39;;;;;;;;;;;;;;;17.41;100.00;97213.22;5079226;28;20031;-83
2022/09/16 06:01:06;;;;;;;;;;;;;;;17.39;100.00;97225.47;5071049;28;19946;-84
2022/09/16 06:03:33;;;;;;;;;;;;;;;17.37;100.00;97216.88;5066227;28;20394;-84
2022/09/16 06:06:00;;;;;;;;;;;;;;;17.41;100.00;97207.81;5079057;28;20441;-83
2022/09/16 06:08:28;;;;;;;;;;;;;;;17.48;100.00;97210.00;5059932;28;20413;-84
2022/09/16 06:10:54;;;;;;;;;;;;;;;17.50;100.00;97205.88;5069882;28;19939;-84
2022/09/16 06:13:20;;;;;;;;;;;;;;;17.53;100.00;97232.22;5069267;28;19925;-83
2022/09/16 06:15:50;;;;;;;;;;;;;;;17.53;100.00;97237.63;5068474;28;19930;-84
2022/09/16 06:18:18;;;;;;;;;;;;;;;17.45;100.00;97245.75;5084244;28;19928;-83
2022/09/16 06:20:44;;;;;;;;;;;;;;;17.39;100.00;97238.94;5065286;28;19925;-84
2022/09/16 06:23:10;;;;;;;;;;;;;;;17.43;100.00;97232.56;5061115;28;19935;-84
2022/09/16 06:25:37;;;;;;;;;;;;;;;17.23;100.00;97236.78;5076373;28;20384;-84
2022/09/16 06:28:03;;;;;;;;;;;;;;;17.44;100.00;97254.97;5064570;28;19930;-83
2022/09/16 06:30:29;;;;;;;;;;;;;;;17.30;100.00;97254.38;5074757;28;19935;-84
2022/09/16 06:32:57;;;;;;;;;;;;;;;17.32;100.00;97262.94;5073577;28;20370;-85
2022/09/16 06:35:23;;;;;;;;;;;;;;;17.30;100.00;97254.38;5075619;28;19924;-84
2022/09/16 06:37:50;;;;;;;;;;;;;;;17.07;100.00;97249.19;5080130;28;19924;-85
2022/09/16 06:40:16;;;;;;;;;;;;;;;17.11;100.00;97233.91;5084600;28;19928;-84
2022/09/16 06:42:43;;;;;;;;;;;;;;;17.22;100.00;97231.69;5085632;28;20026;-85
2022/09/16 06:45:09;;;;;;;;;;;;;;;17.29;100.00;97221.19;5073900;28;19988;-84
2022/09/16 06:47:36;;;;;;;;;;;;;;;17.34;100.00;97229.09;5042856;28;19924;-83
2022/09/16 06:50:04;;;;;;;;;;;;;;;17.26;100.00;97222.63;5080629;28;19946;-83
2022/09/16 06:52:30;;;;;;;;;;;;;;;17.26;100.00;97230.75;5083469;28;20509;-84
2022/09/16 06:54:57;;;;;;;;;;;;;;;17.41;100.00;97228.63;5084848;28;19924;-83
2022/09/16 06:57:23;;;;;;;;;;;;;;;17.53;100.00;97224.13;5078866;28;19930;-84
2022/09/16 06:59:50;;;;;;;;;;;;;;;17.54;100.00;97233.00;5082076;28;19924;-83
2022/09/16 07:02:16;;;;;;;;;;;;;;;17.58;100.00;97236.66;5080059;28;19969;-83
2022/09/16 07:04:43;;;;;;;;;;;;;;;17.49;100.00;97241.28;5083585;28;20503;-83
2022/09/16 07:07:10;;;;;;;;;;;;;;;17.51;100.00;97228.25;5089423;28;19971;-83
2022/09/16 07:09:37;;;;;;;;;;;;;;;17.53;100.00;97236.81;5085882;28;19928;-83
2022/09/16 07:12:03;;;;;;;;;;;;;;;17.42;100.00;97243.69;5071847;28;20387;-83
2022/09/16 07:14:31;;;;;;;;;;;;;;;17.46;100.00;97244.63;5075554;28;20442;-82
2022/09/16 07:16:57;;;;;;;;;;;;;;;17.45;100.00;97253.84;5057331;28;19924;-83
2022/09/16 07:19:24;;;;;;;;;;;;;;;17.35;100.00;97240.69;5072363;28;19924;-83
2022/09/16 07:21:50;;;;;;;;;;;;;;;17.33;100.00;97243.72;5066324;28;19924;-82
2022/09/16 07:24:18;;;;;;;;;;;;;;;17.27;100.00;97253.88;5088006;28;19924;-83
2022/09/16 07:26:44;;;;;;;;;;;;;;;17.40;100.00;97248.63;5070354;28;19928;-84
2022/09/16 07:29:13;;;;;;;;;;;;;;;17.34;100.00;97256.09;5069210;28;20751;-83
2022/09/16 07:31:39;;;;;;;;;;;;;;;17.32;100.00;97244.03;5075092;28;19932;-83
2022/09/16 07:34:07;;;;;;;;;;;;;;;17.39;100.00;97239.75;5069327;28;19924;-83
2022/09/16 07:36:34;;;;;;;;;;;;;;;17.52;100.00;97235.22;5071542;28;20015;-83
2022/09/16 07:39:01;;;;;;;;;;;;;;;17.50;100.00;97251.75;5103198;28;19924;-86
2022/09/16 07:41:30;;;;;;;;;;;;;;;17.36;100.00;97245.00;5057273;28;19924;-86
2022/09/16 07:43:58;;;;;;;;;;;;;;;17.34;100.00;97249.91;5077732;28;19924;-86
2022/09/16 07:46:25;;;;;;;;;;;;;;;17.30;100.00;97259.78;5084811;28;19928;-86
2022/09/16 07:48:51;;;;;;;;;;;;;;;17.45;100.00;97261.94;5073954;28;19963;-83
2022/09/16 07:51:19;;;;;;;;;;;;;;;17.28;100.00;97260.88;5080742;28;20358;-83
2022/09/16 07:53:45;;;;;;;;;;;;;;;17.25;100.00;97261.53;5088641;28;19924;-84
2022/09/16 07:56:13;;;;;;;;;;;;;;;17.25;100.00;97255.31;5081830;28;19932;-84
2022/09/16 07:58:41;;;;;;;;;;;;;;;17.31;100.00;97259.44;5066914;28;19928;-83
2022/09/16 08:01:08;;;;;;;;;;;;;;;17.24;100.00;97245.63;5088111;28;19935;-84
2022/09/16 08:03:35;;;;;;;;;;;;;;;17.29;100.00;97242.78;5086987;28;20442;-86
2022/09/16 08:06:02;;;;;;;;;;;;;;;17.25;100.00;97250.72;5067692;28;19928;-83
2022/09/16 08:08:29;;;;;;;;;;;;;;;17.22;100.00;97248.69;5084943;28;19935;-83
2022/09/16 08:10:56;;;;;;;;;;;;;;;17.07;100.00;97246.50;5091312;28;19923;-84
2022/09/16 08:13:23;;;;;;;;;;;;;;;17.26;100.00;97246.13;5088338;28;20636;-83
2022/09/16 08:15:52;;;;;;;;;;;;;;;17.18;100.00;97253.13;5083881;28;20318;-84
2022/09/16 08:18:19;;;;;;;;;;;;;;;17.31;100.00;97251.34;5102943;28;20392;-84
2022/09/16 08:20:45;;;;;;;;;;;;;;;17.23;100.00;97244.88;5085280;28;19924;-84
2022/09/16 08:23:13;;;;;;;;;;;;;;;17.27;100.00;97247.69;5058478;28;19928;-84
2022/09/16 08:25:40;;;;;;;;;;;;;;;17.31;100.00;97254.03;5083399;28;19959;-84
2022/09/16 08:28:11;;;;;;;;;;;;;;;17.20;100.00;97250.91;5054512;28;20321;-85
2022/09/16 08:30:38;;;;;;;;;;;;;;;17.22;100.00;97253.28;5059523;28;19985;-83
2022/09/16 08:33:05;;;;;;;;;;;;;;;17.23;100.00;97247.56;5088976;28;19930;-83
2022/09/16 08:35:32;;;;;;;;;;;;;;;17.15;100.00;97240.28;5078400;28;19924;-83
2022/09/16 08:37:58;;;;;;;;;;;;;;;17.19;100.00;97248.53;5083082;28;19924;-83
2022/09/16 08:40:25;;;;;;;;;;;;;;;17.10;100.00;97248.56;5094068;28;20371;-84
2022/09/16 08:42:59;;;;;;;;;;;;;;;17.06;100.00;97252.19;5097135;28;19935;-83
2022/09/16 08:45:29;;;;;;;;;;;;;;;17.14;100.00;97252.16;5092567;28;20284;-85
2022/09/16 08:48:03;;;;;;;;;;;;;;;17.19;100.00;97252.00;5093276;28;19932;-84
2022/09/16 08:50:35;;;;;;;;;;;;;;;17.20;100.00;97250.91;5078938;28;20287;-84
2022/09/16 08:53:03;;;;;;;;;;;;;;;17.23;100.00;97252.97;5092734;28;19928;-84
2022/09/16 08:55:32;;;;;;;;;;;;;;;17.36;100.00;97250.38;5090407;28;19931;-85
2022/09/16 08:58:04;;;;;;;;;;;;;;;17.20;100.00;97256.31;5083574;28;19924;-83
2022/09/16 09:00:31;;;;;;;;;;;;;;;17.21;100.00;97257.06;5072328;28;19974;-84
2022/09/16 09:03:01;;;;;;;;;;;;;;;17.15;100.00;97255.66;5078813;28;20009;-82
2022/09/16 09:05:31;;;;;;;;;;;;;;;17.25;100.00;97250.72;5075967;28;19958;-84
2022/09/16 09:08:16;;;;;;;;;;;;;;;17.24;100.00;97253.72;5091020;28;19950;-83
2022/09/16 09:10:45;;;;;;;;;;;;;;;17.28;100.00;97250.09;5092288;28;19978;-84
2022/09/16 09:13:17;;;;;;;;;;;;;;;17.30;100.00;97246.28;5092329;28;19932;-83
2022/09/16 09:15:47;;;;;;;;;;;;;;;17.35;100.00;97248.81;5098224;28;20454;-85
2022/09/16 09:18:24;;;;;;;;;;;;;;;17.27;100.00;97240.41;5073779;28;19924;-85
2022/09/16 09:20:56;;;;;;;;;;;;;;;17.12;100.00;97246.31;5088584;28;20213;-85
2022/09/16 09:23:32;;;;;;;;;;;;;;;17.16;100.00;97241.88;5084281;28;19928;-85
2022/09/16 09:25:58;;;;;;;;;;;;;;;17.09;100.00;97246.94;5092610;28;19959;-85
2022/09/16 09:28:35;;;;;;;;;;;;;;;17.29;100.00;97248.19;5073611;28;20414;-85
2022/09/16 09:31:05;;;;;;;;;;;;;;;17.15;100.00;97253.75;5075990;28;19925;-84
2022/09/16 09:33:36;;;;;;;;;;;;;;;17.18;100.00;97258.50;5057959;28;19928;-86
2022/09/16 09:36:11;;;;;;;;;;;;;;;17.30;100.00;97265.19;5090219;28;19928;-85
2022/09/16 09:38:47;;;;;;;;;;;;;;;17.12;100.00;97262.50;5082762;28;19927;-83
2022/09/16 09:41:16;;;;;;;;;;;;;;;17.26;100.00;97263.13;5091486;28;19924;-85
2022/09/16 09:43:45;;;;;;;;;;;;;;;17.18;100.00;97253.13;5072708;28;19977;-86
2022/09/16 09:46:15;;;;;;;;;;;;;;;17.21;100.00;97255.19;5091625;28;19932;-83
2022/09/16 09:48:43;;;;;;;;;;;;;;;17.31;100.00;97250.53;5075976;28;19928;-84
2022/09/16 09:51:13;;;;;;;;;;;;;;;17.17;100.00;97243.47;5082223;28;19934;-84
2022/09/16 09:53:43;;;;;;;;;;;;;;;17.19;100.00;97243.13;5088154;28;19946;-85
2022/09/16 09:56:16;;;;;;;;;;;;;;;17.18;100.00;97242.31;5074339;28;20399;-83
2022/09/16 09:58:46;;;;;;;;;;;;;;;17.14;100.00;97252.16;5077412;28;19931;-85
2022/09/16 10:01:12;;;;;;;;;;;;;;;17.28;100.00;97254.69;5088158;28;19950;-87
2022/09/16 10:03:39;;;;;;;;;;;;;;;17.20;100.00;97250.91;5084022;28;19924;-87
2022/09/16 10:06:06;;;;;;;;;;;;;;;17.12;100.00;97238.22;5087258;28;19924;-85
2022/09/16 10:08:36;;;;;;;;;;;;;;;17.13;100.00;97234.41;5088432;28;19928;-86
2022/09/16 10:11:03;;;;;;;;;;;;;;;17.07;100.00;97246.50;5071813;28;19928;-85
2022/09/16 10:13:31;;;;;;;;;;;;;;;17.09;100.00;97246.16;5061374;28;20327;-86
2022/09/16 10:16:09;;;;;;;;;;;;;;;17.08;100.00;97250.00;5097319;28;19928;-84
2022/09/16 10:18:36;;;;;;;;;;;;;;;17.04;100.00;97247.13;5074376;28;19928;-84
2022/09/16 10:21:05;;;;;;;;;;;;;;;17.06;100.00;97242.19;5087170;28;19994;-84
2022/09/16 10:23:31;;;;;;;;;;;;;;;16.92;100.00;97232.72;5084077;28;20553;-84
2022/09/16 10:26:05;;;;;;;;;;;;;;;16.76;100.00;97229.72;5064598;28;19924;-84
2022/09/16 10:28:33;;;;;;;;;;;;;;;16.90;100.00;97238.41;5070509;28;20030;-84
2022/09/16 10:31:00;;;;;;;;;;;;;;;17.08;100.00;97239.97;5082692;28;20389;-84
2022/09/16 10:33:28;;;;;;;;;;;;;;;17.17;100.00;97232.66;5108164;28;19934;-83
2022/09/16 10:35:56;;;;;;;;;;;;;;;16.97;100.00;97236.03;5088922;28;19930;-86
2022/09/16 10:38:24;;;;;;;;;;;;;;;17.22;100.00;97237.88;5093618;28;19928;-84
2022/09/16 10:40:51;;;;;;;;;;;;;;;17.01;100.00;97236.19;5082430;28;20357;-84
2022/09/16 10:43:18;;;;;;;;;;;;;;;17.06;100.00;97234.09;5102287;28;20528;-84
2022/09/16 10:45:47;;;;;;;;;;;;;;;17.00;100.00;97240.78;5067000;28;20425;-83
2022/09/16 10:48:15;;;;;;;;;;;;;;;17.01;100.00;97234.28;5096422;28;20015;-83
2022/09/16 10:50:51;;;;;;;;;;;;;;;16.83;100.00;97234.63;5090880;28;20561;-84
2022/09/16 10:53:21;;;;;;;;;;;;;;;16.94;100.00;97238.56;5087861;28;20385;-84
2022/09/16 10:55:56;;;;;;;;;;;;;;;17.04;100.00;97240.94;5068748;28;19924;-84
2022/09/16 10:58:23;;;;;;;;;;;;;;;17.05;100.00;97242.53;5084304;28;20422;-85
2022/09/16 11:00:56;;;;;;;;;;;;;;;16.99;100.00;97244.59;5065727;28;19929;-83
2022/09/16 11:03:38;;;;;;;;;;;;;;;17.00;100.00;97243.47;5083050;28;19931;-85
2022/09/16 11:06:09;;;;;;;;;;;;;;;17.06;100.00;97231.41;5078989;28;19931;-84
2022/09/16 11:08:42;;;;;;;;;;;;;;;17.04;100.00;97239.03;5072809;28;19924;-85
2022/09/16 11:11:15;;;;;;;;;;;;;;;17.09;100.00;97240.75;5069437;28;20474;-84
2022/09/16 11:13:47;;;;;;;;;;;;;;;17.01;100.00;97239.69;5086260;28;19976;-84
2022/09/16 11:16:22;;;;;;;;;;;;;;;17.04;100.00;97247.13;5082817;28;20315;-85
2022/09/16 11:18:55;;;;;;;;;;;;;;;17.07;100.00;97246.50;5080011;28;20398;-84
2022/09/16 11:21:30;;;;;;;;;;;;;;;17.10;100.00;97245.84;5077004;28;19930;-84
2022/09/16 11:24:17;;;;;;;;;;;;;;;17.01;100.00;97242.38;5084973;28;19924;-83
2022/09/16 11:26:49;;;;;;;;;;;;;;;17.01;100.00;97236.97;5080514;28;20609;-84
2022/09/16 11:29:29;;;;;;;;;;;;;;;17.00;100.00;97240.78;5063367;28;20349;-82
2022/09/16 11:32:02;;;;;;;;;;;;;;;17.17;100.00;97234.56;5088015;28;20099;-84
2022/09/16 11:34:35;;;;;;;;;;;;;;;17.30;100.00;97240.88;5069846;28;19951;-87
2022/09/16 11:37:06;;;;;;;;;;;;;;;17.22;100.00;97232.47;5090098;28;20594;-83
2022/09/16 11:39:39;;;;;;;;;;;;;;;17.17;100.00;97229.97;5077690;28;19951;-84
2022/09/16 11:42:11;;;;;;;;;;;;;;;17.21;100.00;97224.69;5088798;28;19924;-85
2022/09/16 11:44:44;;;;;;;;;;;;;;;17.24;100.00;97232.94;5065766;28;19928;-83
2022/09/16 11:47:25;;;;;;;;;;;;;;;17.31;100.00;97242.44;5071182;28;19931;-85
2022/09/16 11:50:16;;;;;;;;;;;;;;;17.27;100.00;97253.09;5080689;28;19924;-84
2022/09/16 11:52:51;;;;;;;;;;;;;;;17.34;100.00;97242.59;5071918;28;19964;-84
2022/09/16 11:55:30;;;;;;;;;;;;;;;17.32;100.00;97244.84;5070982;28;19935;-84
2022/09/16 11:57:58;;;;;;;;;;;;;;;17.27;100.00;97255.78;5074373;28;19924;-84
2022/09/16 12:00:24;;;;;;;;;;;;;;;17.25;100.00;97247.22;5073708;28;19929;-86
2022/09/16 12:02:57;;;;;;;;;;;;;;;17.18;100.00;97241.53;5079518;28;19955;-84
2022/09/16 12:05:25;;;;;;;;;;;;;;;17.12;100.00;97240.13;5093318;28;19928;-85
2022/09/16 12:07:54;;;;;;;;;;;;;;;17.20;100.00;97244.72;5095067;28;19935;-84
2022/09/16 12:10:23;;;;;;;;;;;;;;;17.21;100.00;97236.28;5066802;28;20011;-84
2022/09/16 12:12:53;;;;;;;;;;;;;;;17.15;100.00;97232.19;5057852;28;19925;-83
2022/09/16 12:15:21;;;;;;;;;;;;;;;17.15;100.00;97224.09;5064415;28;20299;-84
2022/09/16 12:17:51;;;;;;;;;;;;;;;17.14;100.00;97232.50;5077022;28;19932;-85
2022/09/16 12:20:21;;;;;;;;;;;;;;;17.24;100.00;97222.16;5088645;28;19924;-83
2022/09/16 12:22:50;;;;;;;;;;;;;;;17.36;100.00;97223.41;5084678;28;20387;-84
2022/09/16 12:25:18;;;;;;;;;;;;;;;17.36;100.00;97220.69;5089525;28;19924;-85
2022/09/16 12:27:51;;;;;;;;;;;;;;;17.31;100.00;97213.56;5050541;28;19924;-84
2022/09/16 12:30:18;;;;;;;;;;;;;;;17.31;100.00;97226.25;5068076;28;19960;-83
2022/09/16 12:32:50;;;;;;;;;;;;;;;17.16;100.00;97209.50;5083303;28;20023;-84
2022/09/16 12:35:19;;;;;;;;;;;;;;;17.17;100.00;97213.78;5076279;28;20265;-83
2022/09/16 12:37:49;;;;;;;;;;;;;;;17.18;100.00;97215.34;5075727;28;19924;-84
2022/09/16 12:40:17;;;;;;;;;;;;;;;17.17;100.00;97216.47;5087107;28;19935;-84
2022/09/16 12:43:01;;;;;;;;;;;;;;;17.42;100.00;97225.59;5065826;28;19968;-84
2022/09/16 12:45:34;;;;;;;;;;;;;;;17.49;100.00;97222.38;5077219;28;19930;-85